sensor_id;sensor_type;location;lat;lon;timestamp;temperature;humidity
15705;DHT22;7952;48.396;12.806;2023-03-01T00:01:53;4.10;48.10
15705;DHT22;7952;48.396;12.806;2023-03-01T00:04:18;4.00;48.00
15705;DHT22;7952;48.396;12.806;2023-03-01T00:06:44;4.00;48.10
15705;DHT22;7952;48.396;12.806;2023-03-01T00:09:12;4.00;48.10
15705;DHT22;7952;48.396;12.806;2023-03-01T00:11:38;3.90;48.10
15705;DHT22;7952;48.396;12.806;2023-03-01T00:14:03;3.90;48.20
15705;DHT22;7952;48.396;12.806;2023-03-01T00:16:34;3.90;48.20
15705;DHT22;7952;48.396;12.806;2023-03-01T00:19:00;3.80;48.20
15705;DHT22;7952;48.396;12.806;2023-03-01T00:21:26;3.80;48.20
15705;DHT22;7952;48.396;12.806;2023-03-01T00:23:52;3.80;48.20
15705;DHT22;7952;48.396;12.806;2023-03-01T00:26:19;3.80;48.30
15705;DHT22;7952;48.396;12.806;2023-03-01T00:28:45;3.70;48.20
15705;DHT22;7952;48.396;12.806;2023-03-01T00:31:22;3.70;48.30
15705;DHT22;7952;48.396;12.806;2023-03-01T00:33:52;3.60;48.20
15705;DHT22;7952;48.396;12.806;2023-03-01T00:36:19;3.60;48.30
15705;DHT22;7952;48.396;12.806;2023-03-01T00:38:46;3.60;48.30
15705;DHT22;7952;48.396;12.806;2023-03-01T00:41:16;3.60;48.40
15705;DHT22;7952;48.396;12.806;2023-03-01T00:43:42;3.50;48.30
15705;DHT22;7952;48.396;12.806;2023-03-01T00:46:10;3.50;48.40
15705;DHT22;7952;48.396;12.806;2023-03-01T00:48:37;3.40;48.40
15705;DHT22;7952;48.396;12.806;2023-03-01T00:51:20;3.40;48.40
15705;DHT22;7952;48.396;12.806;2023-03-01T00:53:47;3.40;48.50
15705;DHT22;7952;48.396;12.806;2023-03-01T00:56:14;3.30;48.40
15705;DHT22;7952;48.396;12.806;2023-03-01T00:58:40;3.30;48.50
15705;DHT22;7952;48.396;12.806;2023-03-01T01:01:12;3.30;48.50
15705;DHT22;7952;48.396;12.806;2023-03-01T01:03:58;3.30;48.50
15705;DHT22;7952;48.396;12.806;2023-03-01T01:06:27;3.20;48.50
15705;DHT22;7952;48.396;12.806;2023-03-01T01:08:54;3.20;48.50
15705;DHT22;7952;48.396;12.806;2023-03-01T01:11:21;3.20;48.60
15705;DHT22;7952;48.396;12.806;2023-03-01T01:13:47;3.10;48.50
15705;DHT22;7952;48.396;12.806;2023-03-01T01:16:18;3.10;48.50
15705;DHT22;7952;48.396;12.806;2023-03-01T01:18:44;3.10;48.60
15705;DHT22;7952;48.396;12.806;2023-03-01T01:21:15;3.10;48.60
15705;DHT22;7952;48.396;12.806;2023-03-01T01:23:42;3.10;48.60
15705;DHT22;7952;48.396;12.806;2023-03-01T01:26:11;3.10;48.70
15705;DHT22;7952;48.396;12.806;2023-03-01T01:28:37;3.00;48.70
15705;DHT22;7952;48.396;12.806;2023-03-01T01:31:04;3.00;48.70
15705;DHT22;7952;48.396;12.806;2023-03-01T01:33:30;3.00;48.70
15705;DHT22;7952;48.396;12.806;2023-03-01T01:35:55;3.00;48.70
15705;DHT22;7952;48.396;12.806;2023-03-01T01:38:21;3.00;48.70
15705;DHT22;7952;48.396;12.806;2023-03-01T01:40:49;2.90;48.60
15705;DHT22;7952;48.396;12.806;2023-03-01T01:43:25;2.90;48.70
15705;DHT22;7952;48.396;12.806;2023-03-01T01:45:59;2.90;48.70
15705;DHT22;7952;48.396;12.806;2023-03-01T01:48:39;2.80;48.60
15705;DHT22;7952;48.396;12.806;2023-03-01T01:51:15;2.80;48.60
15705;DHT22;7952;48.396;12.806;2023-03-01T01:53:43;2.80;48.70
15705;DHT22;7952;48.396;12.806;2023-03-01T01:56:11;2.70;48.60
15705;DHT22;7952;48.396;12.806;2023-03-01T01:58:38;2.70;48.70
15705;DHT22;7952;48.396;12.806;2023-03-01T02:01:05;2.70;48.70
15705;DHT22;7952;48.396;12.806;2023-03-01T02:03:33;2.60;48.60
15705;DHT22;7952;48.396;12.806;2023-03-01T02:08:30;2.60;48.70
15705;DHT22;7952;48.396;12.806;2023-03-01T02:10:58;2.60;48.70
15705;DHT22;7952;48.396;12.806;2023-03-01T02:13:25;2.50;48.70
15705;DHT22;7952;48.396;12.806;2023-03-01T02:15:51;2.50;48.80
15705;DHT22;7952;48.396;12.806;2023-03-01T02:18:18;2.50;48.80
15705;DHT22;7952;48.396;12.806;2023-03-01T02:20:50;2.40;48.70
15705;DHT22;7952;48.396;12.806;2023-03-01T02:23:22;2.40;48.80
15705;DHT22;7952;48.396;12.806;2023-03-01T02:26:15;2.40;48.80
15705;DHT22;7952;48.396;12.806;2023-03-01T02:28:44;2.40;48.80
15705;DHT22;7952;48.396;12.806;2023-03-01T02:31:11;2.30;48.80
15705;DHT22;7952;48.396;12.806;2023-03-01T02:33:57;2.30;48.80
15705;DHT22;7952;48.396;12.806;2023-03-01T02:36:26;2.30;48.80
15705;DHT22;7952;48.396;12.806;2023-03-01T02:38:57;2.20;48.80
15705;DHT22;7952;48.396;12.806;2023-03-01T02:41:23;2.20;48.80
15705;DHT22;7952;48.396;12.806;2023-03-01T02:43:50;2.20;48.90
15705;DHT22;7952;48.396;12.806;2023-03-01T02:46:19;2.20;48.90
15705;DHT22;7952;48.396;12.806;2023-03-01T02:48:51;2.10;48.80
15705;DHT22;7952;48.396;12.806;2023-03-01T02:54:25;2.10;48.90
15705;DHT22;7952;48.396;12.806;2023-03-01T02:56:54;2.00;48.80
15705;DHT22;7952;48.396;12.806;2023-03-01T02:59:22;2.00;48.90
15705;DHT22;7952;48.396;12.806;2023-03-01T03:01:49;2.00;48.90
15705;DHT22;7952;48.396;12.806;2023-03-01T03:04:16;2.00;48.90
15705;DHT22;7952;48.396;12.806;2023-03-01T03:06:43;2.00;48.90
15705;DHT22;7952;48.396;12.806;2023-03-01T03:09:09;2.00;48.90
15705;DHT22;7952;48.396;12.806;2023-03-01T03:11:35;2.00;49.00
15705;DHT22;7952;48.396;12.806;2023-03-01T03:14:02;2.00;49.00
15705;DHT22;7952;48.396;12.806;2023-03-01T03:16:27;2.00;49.60
15705;DHT22;7952;48.396;12.806;2023-03-01T03:18:55;2.00;49.00
15705;DHT22;7952;48.396;12.806;2023-03-01T03:21:32;2.00;49.00
15705;DHT22;7952;48.396;12.806;2023-03-01T03:23:58;1.90;48.80
15705;DHT22;7952;48.396;12.806;2023-03-01T03:26:23;1.90;48.80
15705;DHT22;7952;48.396;12.806;2023-03-01T03:28:49;1.90;48.80
15705;DHT22;7952;48.396;12.806;2023-03-01T03:31:14;1.90;48.80
15705;DHT22;7952;48.396;12.806;2023-03-01T03:33:40;1.90;48.90
15705;DHT22;7952;48.396;12.806;2023-03-01T03:36:06;1.80;48.80
15705;DHT22;7952;48.396;12.806;2023-03-01T03:38:31;1.80;48.90
15705;DHT22;7952;48.396;12.806;2023-03-01T03:41:03;1.80;48.90
15705;DHT22;7952;48.396;12.806;2023-03-01T03:43:31;1.80;48.90
15705;DHT22;7952;48.396;12.806;2023-03-01T03:45:57;1.70;48.80
15705;DHT22;7952;48.396;12.806;2023-03-01T03:48:23;1.70;48.90
15705;DHT22;7952;48.396;12.806;2023-03-01T03:50:54;1.70;48.90
15705;DHT22;7952;48.396;12.806;2023-03-01T03:53:21;1.70;49.00
15705;DHT22;7952;48.396;12.806;2023-03-01T03:55:47;1.60;48.80
15705;DHT22;7952;48.396;12.806;2023-03-01T03:58:15;1.60;48.90
15705;DHT22;7952;48.396;12.806;2023-03-01T04:00:43;1.60;48.90
15705;DHT22;7952;48.396;12.806;2023-03-01T04:03:10;1.60;49.00
15705;DHT22;7952;48.396;12.806;2023-03-01T04:05:37;1.60;49.00
15705;DHT22;7952;48.396;12.806;2023-03-01T04:08:04;1.60;49.00
15705;DHT22;7952;48.396;12.806;2023-03-01T04:10:39;1.60;49.00
15705;DHT22;7952;48.396;12.806;2023-03-01T04:13:06;1.60;49.00
15705;DHT22;7952;48.396;12.806;2023-03-01T04:15:33;1.60;49.00
15705;DHT22;7952;48.396;12.806;2023-03-01T04:17:59;1.60;49.00
15705;DHT22;7952;48.396;12.806;2023-03-01T04:20:28;1.60;49.00
15705;DHT22;7952;48.396;12.806;2023-03-01T04:22:59;1.60;49.00
15705;DHT22;7952;48.396;12.806;2023-03-01T04:25:37;1.60;49.10
15705;DHT22;7952;48.396;12.806;2023-03-01T04:28:03;1.60;49.10
15705;DHT22;7952;48.396;12.806;2023-03-01T04:30:28;1.60;49.10
15705;DHT22;7952;48.396;12.806;2023-03-01T04:32:54;1.60;49.10
15705;DHT22;7952;48.396;12.806;2023-03-01T04:35:19;1.60;49.10
15705;DHT22;7952;48.396;12.806;2023-03-01T04:37:46;1.60;49.10
15705;DHT22;7952;48.396;12.806;2023-03-01T04:40:11;1.60;49.10
15705;DHT22;7952;48.396;12.806;2023-03-01T04:42:42;1.60;49.10
15705;DHT22;7952;48.396;12.806;2023-03-01T04:45:08;1.60;49.00
15705;DHT22;7952;48.396;12.806;2023-03-01T04:47:39;1.60;49.00
15705;DHT22;7952;48.396;12.806;2023-03-01T04:50:05;1.50;48.90
15705;DHT22;7952;48.396;12.806;2023-03-01T04:52:31;1.50;48.90
15705;DHT22;7952;48.396;12.806;2023-03-01T04:54:57;1.50;49.00
15705;DHT22;7952;48.396;12.806;2023-03-01T04:57:22;1.50;49.00
15705;DHT22;7952;48.396;12.806;2023-03-01T04:59:48;1.50;49.00
15705;DHT22;7952;48.396;12.806;2023-03-01T05:02:13;1.50;49.00
15705;DHT22;7952;48.396;12.806;2023-03-01T05:04:39;1.50;49.00
15705;DHT22;7952;48.396;12.806;2023-03-01T05:07:04;1.50;49.00
15705;DHT22;7952;48.396;12.806;2023-03-01T05:09:30;1.40;48.90
15705;DHT22;7952;48.396;12.806;2023-03-01T05:11:55;1.40;49.00
15705;DHT22;7952;48.396;12.806;2023-03-01T05:14:21;1.40;49.00
15705;DHT22;7952;48.396;12.806;2023-03-01T05:16:47;1.40;49.00
15705;DHT22;7952;48.396;12.806;2023-03-01T05:19:12;1.40;49.00
15705;DHT22;7952;48.396;12.806;2023-03-01T05:21:44;1.40;49.00
15705;DHT22;7952;48.396;12.806;2023-03-01T05:24:31;1.40;49.00
15705;DHT22;7952;48.396;12.806;2023-03-01T05:26:58;1.40;49.00
15705;DHT22;7952;48.396;12.806;2023-03-01T05:29:25;1.40;49.00
15705;DHT22;7952;48.396;12.806;2023-03-01T05:31:52;1.40;49.00
15705;DHT22;7952;48.396;12.806;2023-03-01T05:34:19;1.40;49.00
15705;DHT22;7952;48.396;12.806;2023-03-01T05:36:48;1.40;49.00
15705;DHT22;7952;48.396;12.806;2023-03-01T05:39:13;1.40;49.00
15705;DHT22;7952;48.396;12.806;2023-03-01T05:41:39;1.40;49.00
15705;DHT22;7952;48.396;12.806;2023-03-01T05:44:07;1.40;49.00
15705;DHT22;7952;48.396;12.806;2023-03-01T05:46:33;1.40;49.00
15705;DHT22;7952;48.396;12.806;2023-03-01T05:48:58;1.40;49.00
15705;DHT22;7952;48.396;12.806;2023-03-01T05:51:25;1.40;49.10
15705;DHT22;7952;48.396;12.806;2023-03-01T05:53:51;1.40;49.00
15705;DHT22;7952;48.396;12.806;2023-03-01T05:56:16;1.40;49.10
15705;DHT22;7952;48.396;12.806;2023-03-01T05:58:42;1.40;49.00
15705;DHT22;7952;48.396;12.806;2023-03-01T06:01:11;1.40;49.00
15705;DHT22;7952;48.396;12.806;2023-03-01T06:03:38;1.40;49.00
15705;DHT22;7952;48.396;12.806;2023-03-01T06:06:03;1.40;49.00
15705;DHT22;7952;48.396;12.806;2023-03-01T06:08:29;1.50;49.10
15705;DHT22;7952;48.396;12.806;2023-03-01T06:10:55;1.50;49.10
15705;DHT22;7952;48.396;12.806;2023-03-01T06:13:21;1.50;49.10
15705;DHT22;7952;48.396;12.806;2023-03-01T06:15:47;1.50;49.20
15705;DHT22;7952;48.396;12.806;2023-03-01T06:18:12;1.60;49.40
15705;DHT22;7952;48.396;12.806;2023-03-01T06:20:38;1.80;49.70
15705;DHT22;7952;48.396;12.806;2023-03-01T06:23:03;2.00;49.90
15705;DHT22;7952;48.396;12.806;2023-03-01T06:25:29;2.20;50.00
15705;DHT22;7952;48.396;12.806;2023-03-01T06:27:55;2.50;50.10
15705;DHT22;7952;48.396;12.806;2023-03-01T06:30:23;2.80;50.20
15705;DHT22;7952;48.396;12.806;2023-03-01T06:32:49;3.10;50.20
15705;DHT22;7952;48.396;12.806;2023-03-01T06:35:16;3.40;50.30
15705;DHT22;7952;48.396;12.806;2023-03-01T06:37:44;3.70;50.20
15705;DHT22;7952;48.396;12.806;2023-03-01T06:40:10;4.00;50.20
15705;DHT22;7952;48.396;12.806;2023-03-01T06:42:37;4.40;50.20
15705;DHT22;7952;48.396;12.806;2023-03-01T06:45:04;4.70;50.20
15705;DHT22;7952;48.396;12.806;2023-03-01T06:47:30;5.00;50.20
15705;DHT22;7952;48.396;12.806;2023-03-01T06:49:56;5.40;50.30
15705;DHT22;7952;48.396;12.806;2023-03-01T06:52:22;5.70;50.10
15705;DHT22;7952;48.396;12.806;2023-03-01T06:54:47;6.00;50.10
15705;DHT22;7952;48.396;12.806;2023-03-01T06:57:13;6.30;50.00
15705;DHT22;7952;48.396;12.806;2023-03-01T06:59:38;6.60;49.90
15705;DHT22;7952;48.396;12.806;2023-03-01T07:02:04;6.90;49.80
15705;DHT22;7952;48.396;12.806;2023-03-01T07:04:29;7.20;49.80
15705;DHT22;7952;48.396;12.806;2023-03-01T07:06:56;7.50;49.80
15705;DHT22;7952;48.396;12.806;2023-03-01T07:09:24;7.80;49.90
15705;DHT22;7952;48.396;12.806;2023-03-01T07:11:50;8.10;49.80
15705;DHT22;7952;48.396;12.806;2023-03-01T07:14:16;8.30;49.90
15705;DHT22;7952;48.396;12.806;2023-03-01T07:16:41;8.60;49.80
15705;DHT22;7952;48.396;12.806;2023-03-01T07:19:07;8.90;49.70
15705;DHT22;7952;48.396;12.806;2023-03-01T07:21:33;9.10;49.50
15705;DHT22;7952;48.396;12.806;2023-03-01T07:23:58;9.30;49.10
15705;DHT22;7952;48.396;12.806;2023-03-01T07:26:24;9.50;48.90
15705;DHT22;7952;48.396;12.806;2023-03-01T07:28:49;9.60;48.70
15705;DHT22;7952;48.396;12.806;2023-03-01T07:31:15;9.70;48.60
15705;DHT22;7952;48.396;12.806;2023-03-01T07:33:40;9.80;48.50
15705;DHT22;7952;48.396;12.806;2023-03-01T07:36:06;9.90;48.40
15705;DHT22;7952;48.396;12.806;2023-03-01T07:38:32;10.00;47.30
15705;DHT22;7952;48.396;12.806;2023-03-01T07:41:02;10.10;47.20
15705;DHT22;7952;48.396;12.806;2023-03-01T07:43:29;10.20;47.30
15705;DHT22;7952;48.396;12.806;2023-03-01T07:45:58;10.30;47.00
15705;DHT22;7952;48.396;12.806;2023-03-01T07:48:24;10.40;47.00
15705;DHT22;7952;48.396;12.806;2023-03-01T07:50:50;10.40;47.00
15705;DHT22;7952;48.396;12.806;2023-03-01T07:53:16;10.50;47.10
15705;DHT22;7952;48.396;12.806;2023-03-01T07:55:42;10.60;47.00
15705;DHT22;7952;48.396;12.806;2023-03-01T08:01:38;10.70;46.80
15705;DHT22;7952;48.396;12.806;2023-03-01T08:07:13;10.80;46.20
15705;DHT22;7952;48.396;12.806;2023-03-01T08:12:35;10.80;46.10
15705;DHT22;7952;48.396;12.806;2023-03-01T08:15:07;10.90;46.00
15705;DHT22;7952;48.396;12.806;2023-03-01T08:17:36;10.90;45.80
15705;DHT22;7952;48.396;12.806;2023-03-01T08:22:54;10.80;46.00
15705;DHT22;7952;48.396;12.806;2023-03-01T08:25:29;10.90;45.80
15705;DHT22;7952;48.396;12.806;2023-03-01T08:31:23;11.00;45.60
15705;DHT22;7952;48.396;12.806;2023-03-01T08:33:57;11.10;45.20
15705;DHT22;7952;48.396;12.806;2023-03-01T08:36:42;11.00;44.70
15705;DHT22;7952;48.396;12.806;2023-03-01T08:39:29;11.00;44.80
15705;DHT22;7952;48.396;12.806;2023-03-01T08:41:58;11.00;44.90
15705;DHT22;7952;48.396;12.806;2023-03-01T08:44:35;11.10;45.20
15705;DHT22;7952;48.396;12.806;2023-03-01T09:07:22;10.80;42.90
15705;DHT22;7952;48.396;12.806;2023-03-01T09:10:42;10.90;42.90
15705;DHT22;7952;48.396;12.806;2023-03-01T09:13:08;10.90;43.00
15705;DHT22;7952;48.396;12.806;2023-03-01T09:15:57;10.90;42.70
15705;DHT22;7952;48.396;12.806;2023-03-01T09:18:22;11.00;42.80
15705;DHT22;7952;48.396;12.806;2023-03-01T09:20:48;11.00;42.70
15705;DHT22;7952;48.396;12.806;2023-03-01T09:24:01;11.10;43.00
15705;DHT22;7952;48.396;12.806;2023-03-01T09:36:28;11.10;41.40
15705;DHT22;7952;48.396;12.806;2023-03-01T09:42:31;10.90;40.50
15705;DHT22;7952;48.396;12.806;2023-03-01T09:45:14;10.70;40.50
15705;DHT22;7952;48.396;12.806;2023-03-01T09:47:40;10.60;40.20
15705;DHT22;7952;48.396;12.806;2023-03-01T09:50:13;10.50;40.20
15705;DHT22;7952;48.396;12.806;2023-03-01T09:55:37;10.40;40.40
15705;DHT22;7952;48.396;12.806;2023-03-01T10:00:56;10.30;40.30
15705;DHT22;7952;48.396;12.806;2023-03-01T10:03:33;10.30;40.60
15705;DHT22;7952;48.396;12.806;2023-03-01T10:06:08;10.30;40.40
15705;DHT22;7952;48.396;12.806;2023-03-01T10:08:48;10.30;40.20
15705;DHT22;7952;48.396;12.806;2023-03-01T10:11:22;10.20;40.00
15705;DHT22;7952;48.396;12.806;2023-03-01T10:13:59;10.20;40.20
15705;DHT22;7952;48.396;12.806;2023-03-01T10:16:47;10.20;40.20
15705;DHT22;7952;48.396;12.806;2023-03-01T10:19:46;10.10;40.00
15705;DHT22;7952;48.396;12.806;2023-03-01T10:22:20;10.00;40.00
15705;DHT22;7952;48.396;12.806;2023-03-01T10:24:50;10.00;40.20
15705;DHT22;7952;48.396;12.806;2023-03-01T10:27:24;9.90;41.20
15705;DHT22;7952;48.396;12.806;2023-03-01T10:30:11;9.90;41.20
15705;DHT22;7952;48.396;12.806;2023-03-01T10:32:39;9.80;41.10
15705;DHT22;7952;48.396;12.806;2023-03-01T10:35:19;9.70;41.10
15705;DHT22;7952;48.396;12.806;2023-03-01T10:38:06;9.60;41.20
15705;DHT22;7952;48.396;12.806;2023-03-01T10:40:34;9.40;41.30
15705;DHT22;7952;48.396;12.806;2023-03-01T10:43:04;9.40;42.40
15705;DHT22;7952;48.396;12.806;2023-03-01T10:48:20;9.30;41.90
15705;DHT22;7952;48.396;12.806;2023-03-01T10:53:37;9.20;42.10
15705;DHT22;7952;48.396;12.806;2023-03-01T10:56:08;9.10;42.30
15705;DHT22;7952;48.396;12.806;2023-03-01T10:58:36;9.10;42.30
15705;DHT22;7952;48.396;12.806;2023-03-01T11:03:37;9.20;42.40
15705;DHT22;7952;48.396;12.806;2023-03-01T11:13:36;9.10;42.30
15705;DHT22;7952;48.396;12.806;2023-03-01T11:16:06;9.10;42.50
15705;DHT22;7952;48.396;12.806;2023-03-01T11:18:32;9.10;42.40
15705;DHT22;7952;48.396;12.806;2023-03-01T11:20:59;9.10;42.70
15705;DHT22;7952;48.396;12.806;2023-03-01T11:23:28;9.10;42.70
15705;DHT22;7952;48.396;12.806;2023-03-01T11:25:56;9.10;42.80
15705;DHT22;7952;48.396;12.806;2023-03-01T11:28:22;9.10;42.90
15705;DHT22;7952;48.396;12.806;2023-03-01T11:31:07;9.10;43.00
15705;DHT22;7952;48.396;12.806;2023-03-01T11:33:50;9.20;43.70
15705;DHT22;7952;48.396;12.806;2023-03-01T11:36:35;9.20;43.00
15705;DHT22;7952;48.396;12.806;2023-03-01T11:41:51;9.30;43.20
15705;DHT22;7952;48.396;12.806;2023-03-01T11:44:23;9.40;43.20
15705;DHT22;7952;48.396;12.806;2023-03-01T11:50:13;9.50;43.90
15705;DHT22;7952;48.396;12.806;2023-03-01T12:14:50;10.20;42.60
15705;DHT22;7952;48.396;12.806;2023-03-01T12:17:30;10.20;42.60
15705;DHT22;7952;48.396;12.806;2023-03-01T12:20:14;10.30;42.60
15705;DHT22;7952;48.396;12.806;2023-03-01T12:28:52;10.40;42.60
15705;DHT22;7952;48.396;12.806;2023-03-01T12:31:40;10.40;42.50
15705;DHT22;7952;48.396;12.806;2023-03-01T12:34:33;10.50;42.60
15705;DHT22;7952;48.396;12.806;2023-03-01T12:37:29;10.50;42.70
15705;DHT22;7952;48.396;12.806;2023-03-01T12:40:03;10.50;42.70
15705;DHT22;7952;48.396;12.806;2023-03-01T12:45:47;10.50;42.70
15705;DHT22;7952;48.396;12.806;2023-03-01T12:51:20;10.60;42.60
15705;DHT22;7952;48.396;12.806;2023-03-01T12:53:49;10.50;42.60
15705;DHT22;7952;48.396;12.806;2023-03-01T12:56:24;10.50;42.70
15705;DHT22;7952;48.396;12.806;2023-03-01T13:01:52;10.60;42.90
15705;DHT22;7952;48.396;12.806;2023-03-01T13:10:20;10.70;43.00
15705;DHT22;7952;48.396;12.806;2023-03-01T13:13:00;10.70;43.00
15705;DHT22;7952;48.396;12.806;2023-03-01T13:15:46;10.80;43.20
15705;DHT22;7952;48.396;12.806;2023-03-01T13:26:19;10.90;43.10
15705;DHT22;7952;48.396;12.806;2023-03-01T13:28:56;11.00;43.30
15705;DHT22;7952;48.396;12.806;2023-03-01T13:54:38;11.20;43.40
15705;DHT22;7952;48.396;12.806;2023-03-01T14:22:55;11.30;43.30
15705;DHT22;7952;48.396;12.806;2023-03-01T14:25:53;11.30;43.50
15705;DHT22;7952;48.396;12.806;2023-03-01T14:28:28;11.40;43.60
15705;DHT22;7952;48.396;12.806;2023-03-01T14:30:59;11.40;43.60
15705;DHT22;7952;48.396;12.806;2023-03-01T14:35:58;11.50;43.60
15705;DHT22;7952;48.396;12.806;2023-03-01T14:48:37;11.50;43.50
15705;DHT22;7952;48.396;12.806;2023-03-01T15:20:54;11.30;43.90
15705;DHT22;7952;48.396;12.806;2023-03-01T15:23:30;11.30;44.10
15705;DHT22;7952;48.396;12.806;2023-03-01T15:26:27;11.30;44.10
15705;DHT22;7952;48.396;12.806;2023-03-01T15:29:16;11.30;44.20
15705;DHT22;7952;48.396;12.806;2023-03-01T15:35:40;11.30;44.30
15705;DHT22;7952;48.396;12.806;2023-03-01T15:38:29;11.30;44.30
15705;DHT22;7952;48.396;12.806;2023-03-01T15:40:56;11.20;44.30
15705;DHT22;7952;48.396;12.806;2023-03-01T15:44:00;11.20;44.30
15705;DHT22;7952;48.396;12.806;2023-03-01T15:46:32;11.20;44.40
15705;DHT22;7952;48.396;12.806;2023-03-01T15:52:44;11.10;44.40
15705;DHT22;7952;48.396;12.806;2023-03-01T15:55:20;11.10;44.40
15705;DHT22;7952;48.396;12.806;2023-03-01T16:00:45;11.00;44.40
15705;DHT22;7952;48.396;12.806;2023-03-01T16:03:15;11.00;44.50
15705;DHT22;7952;48.396;12.806;2023-03-01T16:05:48;11.00;44.50
15705;DHT22;7952;48.396;12.806;2023-03-01T16:08:14;10.90;44.50
15705;DHT22;7952;48.396;12.806;2023-03-01T16:10:41;10.80;44.50
15705;DHT22;7952;48.396;12.806;2023-03-01T16:13:11;10.80;44.60
15705;DHT22;7952;48.396;12.806;2023-03-01T16:15:43;10.80;44.70
15705;DHT22;7952;48.396;12.806;2023-03-01T16:18:12;10.70;44.70
15705;DHT22;7952;48.396;12.806;2023-03-01T16:20:37;10.70;44.70
15705;DHT22;7952;48.396;12.806;2023-03-01T16:23:06;10.60;44.70
15705;DHT22;7952;48.396;12.806;2023-03-01T16:25:32;10.60;44.80
15705;DHT22;7952;48.396;12.806;2023-03-01T16:27:58;10.50;44.80
15705;DHT22;7952;48.396;12.806;2023-03-01T16:30:30;10.40;44.80
15705;DHT22;7952;48.396;12.806;2023-03-01T16:32:55;10.40;44.90
15705;DHT22;7952;48.396;12.806;2023-03-01T16:35:22;10.30;44.90
15705;DHT22;7952;48.396;12.806;2023-03-01T16:37:49;10.30;45.10
15705;DHT22;7952;48.396;12.806;2023-03-01T16:40:20;10.20;45.00
15705;DHT22;7952;48.396;12.806;2023-03-01T16:42:47;10.20;45.30
15705;DHT22;7952;48.396;12.806;2023-03-01T16:45:13;10.10;45.20
15705;DHT22;7952;48.396;12.806;2023-03-01T16:47:38;10.00;45.20
15705;DHT22;7952;48.396;12.806;2023-03-01T16:50:04;10.00;45.20
15705;DHT22;7952;48.396;12.806;2023-03-01T16:52:29;9.90;46.80
15705;DHT22;7952;48.396;12.806;2023-03-01T16:54:55;9.90;46.30
15705;DHT22;7952;48.396;12.806;2023-03-01T16:57:20;9.80;46.30
15705;DHT22;7952;48.396;12.806;2023-03-01T16:59:46;9.80;46.40
15705;DHT22;7952;48.396;12.806;2023-03-01T17:02:13;9.70;46.40
15705;DHT22;7952;48.396;12.806;2023-03-01T17:04:40;9.60;46.40
15705;DHT22;7952;48.396;12.806;2023-03-01T17:07:05;9.60;46.50
15705;DHT22;7952;48.396;12.806;2023-03-01T17:09:35;9.50;46.60
15705;DHT22;7952;48.396;12.806;2023-03-01T17:12:01;9.40;46.60
15705;DHT22;7952;48.396;12.806;2023-03-01T17:14:26;9.40;46.70
15705;DHT22;7952;48.396;12.806;2023-03-01T17:16:52;9.30;46.70
15705;DHT22;7952;48.396;12.806;2023-03-01T17:19:18;9.30;46.80
15705;DHT22;7952;48.396;12.806;2023-03-01T17:21:44;9.20;46.80
15705;DHT22;7952;48.396;12.806;2023-03-01T17:24:10;9.20;46.90
15705;DHT22;7952;48.396;12.806;2023-03-01T17:26:36;9.10;47.00
15705;DHT22;7952;48.396;12.806;2023-03-01T17:29:03;9.10;47.60
15705;DHT22;7952;48.396;12.806;2023-03-01T17:31:30;9.00;47.00
15705;DHT22;7952;48.396;12.806;2023-03-01T17:33:55;9.00;47.20
15705;DHT22;7952;48.396;12.806;2023-03-01T17:36:21;8.90;47.20
15705;DHT22;7952;48.396;12.806;2023-03-01T17:38:47;8.90;47.30
15705;DHT22;7952;48.396;12.806;2023-03-01T17:41:13;8.90;47.30
15705;DHT22;7952;48.396;12.806;2023-03-01T17:43:42;8.80;47.40
15705;DHT22;7952;48.396;12.806;2023-03-01T17:46:08;8.80;47.50
15705;DHT22;7952;48.396;12.806;2023-03-01T17:48:33;8.80;47.60
15705;DHT22;7952;48.396;12.806;2023-03-01T17:50:59;8.80;47.60
15705;DHT22;7952;48.396;12.806;2023-03-01T17:53:25;8.70;47.50
15705;DHT22;7952;48.396;12.806;2023-03-01T17:55:59;8.70;47.60
15705;DHT22;7952;48.396;12.806;2023-03-01T17:58:25;8.70;47.70
15705;DHT22;7952;48.396;12.806;2023-03-01T18:00:50;8.60;47.70
15705;DHT22;7952;48.396;12.806;2023-03-01T18:03:16;8.60;47.80
15705;DHT22;7952;48.396;12.806;2023-03-01T18:05:41;8.60;47.90
15705;DHT22;7952;48.396;12.806;2023-03-01T18:08:07;8.50;47.90
15705;DHT22;7952;48.396;12.806;2023-03-01T18:10:33;8.50;47.90
15705;DHT22;7952;48.396;12.806;2023-03-01T18:13:01;8.50;48.00
15705;DHT22;7952;48.396;12.806;2023-03-01T18:15:27;8.40;48.10
15705;DHT22;7952;48.396;12.806;2023-03-01T18:17:53;8.40;48.10
15705;DHT22;7952;48.396;12.806;2023-03-01T18:20:19;8.40;48.30
15705;DHT22;7952;48.396;12.806;2023-03-01T18:22:44;8.30;48.30
15705;DHT22;7952;48.396;12.806;2023-03-01T18:25:10;8.30;48.30
15705;DHT22;7952;48.396;12.806;2023-03-01T18:27:36;8.20;48.30
15705;DHT22;7952;48.396;12.806;2023-03-01T18:30:03;8.20;48.40
15705;DHT22;7952;48.396;12.806;2023-03-01T18:32:29;8.20;48.40
15705;DHT22;7952;48.396;12.806;2023-03-01T18:34:54;8.10;48.40
15705;DHT22;7952;48.396;12.806;2023-03-01T18:37:20;8.10;48.50
15705;DHT22;7952;48.396;12.806;2023-03-01T18:39:50;8.00;48.50
15705;DHT22;7952;48.396;12.806;2023-03-01T18:42:15;8.00;48.50
15705;DHT22;7952;48.396;12.806;2023-03-01T18:44:41;7.90;48.50
15705;DHT22;7952;48.396;12.806;2023-03-01T18:47:06;7.90;48.60
15705;DHT22;7952;48.396;12.806;2023-03-01T18:49:32;7.80;48.60
15705;DHT22;7952;48.396;12.806;2023-03-01T18:51:57;7.80;48.70
15705;DHT22;7952;48.396;12.806;2023-03-01T18:54:23;7.70;48.70
15705;DHT22;7952;48.396;12.806;2023-03-01T18:56:49;7.70;48.80
15705;DHT22;7952;48.396;12.806;2023-03-01T18:59:14;7.60;48.80
15705;DHT22;7952;48.396;12.806;2023-03-01T19:01:40;7.50;48.80
15705;DHT22;7952;48.396;12.806;2023-03-01T19:04:05;7.50;48.90
15705;DHT22;7952;48.396;12.806;2023-03-01T19:06:33;7.40;48.90
15705;DHT22;7952;48.396;12.806;2023-03-01T19:08:59;7.40;49.00
15705;DHT22;7952;48.396;12.806;2023-03-01T19:11:25;7.30;49.00
15705;DHT22;7952;48.396;12.806;2023-03-01T19:13:58;7.30;49.10
15705;DHT22;7952;48.396;12.806;2023-03-01T19:16:26;7.30;49.30
15705;DHT22;7952;48.396;12.806;2023-03-01T19:18:56;7.30;49.40
15705;DHT22;7952;48.396;12.806;2023-03-01T19:21:24;7.20;49.40
15705;DHT22;7952;48.396;12.806;2023-03-01T19:23:50;7.20;49.40
15705;DHT22;7952;48.396;12.806;2023-03-01T19:26:18;7.10;49.40
15705;DHT22;7952;48.396;12.806;2023-03-01T19:28:44;7.10;49.40
15705;DHT22;7952;48.396;12.806;2023-03-01T19:31:13;7.00;49.40
15705;DHT22;7952;48.396;12.806;2023-03-01T19:33:39;7.00;49.40
15705;DHT22;7952;48.396;12.806;2023-03-01T19:36:07;6.90;49.30
15705;DHT22;7952;48.396;12.806;2023-03-01T19:38:33;6.90;49.50
15705;DHT22;7952;48.396;12.806;2023-03-01T19:41:06;6.80;49.40
15705;DHT22;7952;48.396;12.806;2023-03-01T19:43:32;6.80;49.40
15705;DHT22;7952;48.396;12.806;2023-03-01T19:45:58;6.80;49.50
15705;DHT22;7952;48.396;12.806;2023-03-01T19:48:23;6.70;49.40
15705;DHT22;7952;48.396;12.806;2023-03-01T19:50:50;6.70;49.50
15705;DHT22;7952;48.396;12.806;2023-03-01T19:53:16;6.70;49.60